Time;durP1;ratioP1;P1;durP2;ratioP2;P2;SDS_P1;SDS_P2;PMS_P1;PMS_P2;Temp;Humidity;BMP_temperature;BMP_pressure;BME280_temperature;BME280_humidity;BME280_pressure;Samples;Min_cycle;Max_cycle;Signal;HPM_P1;HPM_P2
2022/08/08 00:02:51;;;;;;;11.68;5.03;;;23.30;99.90;;;;;;4994683;28;20042;-76
2022/08/08 00:05:41;;;;;;;11.80;4.90;;;23.40;99.90;;;;;;5016434;28;20029;-79
2022/08/08 00:08:07;;;;;;;8.20;4.88;;;23.30;99.90;;;;;;5023978;28;20549;-74
2022/08/08 00:10:45;;;;;;;9.60;5.30;;;23.30;99.90;;;;;;5021002;28;20030;-80
2022/08/08 00:13:23;;;;;;;11.07;5.65;;;23.30;99.90;;;;;;5010808;28;20076;-80
2022/08/08 00:16:03;;;;;;;11.77;5.07;;;23.30;99.90;;;;;;5010243;28;20077;-79
2022/08/08 00:18:42;;;;;;;12.10;4.97;;;23.40;99.90;;;;;;5010392;28;20041;-69
2022/08/08 00:21:13;;;;;;;8.93;5.15;;;23.20;99.90;;;;;;5010028;28;20052;-79
2022/08/08 00:23:50;;;;;;;10.82;5.57;;;23.10;99.90;;;;;;5012507;28;20033;-67
2022/08/08 00:26:28;;;;;;;8.10;4.80;;;23.10;99.90;;;;;;5012437;28;20186;-80
2022/08/08 00:29:01;;;;;;;9.63;5.20;;;23.00;99.90;;;;;;5012641;28;20466;-80
2022/08/08 00:31:39;;;;;;;9.95;4.88;;;23.00;99.90;;;;;;5044046;28;20113;-78
2022/08/08 00:37:13;;;;;;;14.73;5.82;;;23.00;99.90;;;;;;5011290;28;20519;-77
2022/08/08 00:40:05;;;;;;;10.10;5.47;;;;;;;;;;5012541;28;20041;-79
2022/08/08 00:42:41;;;;;;;11.30;6.32;;;22.80;99.90;;;;;;5011398;28;20038;-81
2022/08/08 00:45:44;;;;;;;13.63;6.28;;;22.80;99.90;;;;;;5012169;28;20412;-77
2022/08/08 00:48:13;;;;;;;9.15;5.13;;;22.80;99.90;;;;;;5013160;28;20156;-80
2022/08/08 00:50:53;;;;;;;9.93;5.32;;;22.70;99.90;;;;;;5010931;28;20026;-79
2022/08/08 00:53:28;;;;;;;12.52;5.95;;;22.80;99.90;;;;;;5001932;28;20084;-79
2022/08/08 00:56:13;;;;;;;8.65;5.65;;;;;;;;;;5024186;28;20484;-80
2022/08/08 00:58:46;;;;;;;10.23;5.90;;;;;;;;;;5034508;28;20026;-80
2022/08/08 01:01:15;;;;;;;17.75;6.75;;;22.80;99.90;;;;;;5010017;28;20044;-80
2022/08/08 01:03:49;;;;;;;9.70;5.13;;;;;;;;;;5013611;28;20030;-80
2022/08/08 01:06:36;;;;;;;13.93;6.97;;;;;;;;;;5028420;28;20488;-80
2022/08/08 01:09:47;;;;;;;15.10;5.70;;;22.50;99.90;;;;;;5045073;28;20447;-81
2022/08/08 01:13:00;;;;;;;12.52;5.80;;;22.50;99.90;;;;;;5016892;28;20045;-67
2022/08/08 01:15:58;;;;;;;12.70;5.63;;;22.50;99.90;;;;;;5029089;28;20100;-64
2022/08/08 01:19:26;;;;;;;11.45;5.72;;;22.50;99.90;;;;;;5031035;28;20076;-80
2022/08/08 01:22:11;;;;;;;14.90;5.85;;;22.50;99.90;;;;;;4969113;28;20638;-78
2022/08/08 01:25:05;;;;;;;14.43;7.22;;;22.50;99.90;;;;;;4968029;28;20155;-79
2022/08/08 01:27:55;;;;;;;12.18;5.85;;;22.40;99.90;;;;;;4955582;28;20531;-77
2022/08/08 01:30:40;;;;;;;10.70;5.80;;;;;;;;;;4969103;28;20043;-80
2022/08/08 01:33:29;;;;;;;12.57;6.22;;;22.20;99.90;;;;;;4971738;28;20557;-79
2022/08/08 01:36:01;;;;;;;12.20;6.80;;;22.20;99.90;;;;;;4971516;28;20125;-78
2022/08/08 01:38:36;;;;;;;14.77;6.53;;;22.20;99.90;;;;;;4955596;28;20168;-80
2022/08/08 01:41:21;;;;;;;10.05;5.07;;;22.30;99.90;;;;;;4971485;28;20073;-79
2022/08/08 01:43:54;;;;;;;13.90;6.10;;;22.30;99.90;;;;;;4970505;28;20370;-74
2022/08/08 01:46:59;;;;;;;13.00;5.72;;;22.20;99.90;;;;;;4971504;28;20454;-79
2022/08/08 01:50:08;;;;;;;11.43;5.90;;;22.20;99.90;;;;;;4929660;28;20544;-79
2022/08/08 01:52:52;;;;;;;21.15;9.93;;;22.30;99.90;;;;;;4984938;28;20038;-79
2022/08/08 01:55:44;;;;;;;13.15;7.70;;;22.30;99.90;;;;;;5038421;28;20041;-79
2022/08/08 01:58:20;;;;;;;15.13;7.00;;;22.30;99.90;;;;;;5020896;28;20053;-79
2022/08/08 02:00:53;;;;;;;14.77;6.47;;;22.30;99.90;;;;;;5037615;28;20037;-79
2022/08/08 02:03:45;;;;;;;11.70;5.80;;;22.30;99.90;;;;;;5007118;28;20030;-79
2022/08/08 02:06:52;;;;;;;11.50;6.00;;;22.30;99.90;;;;;;5002018;28;20080;-79
2022/08/08 02:09:48;;;;;;;7.95;5.40;;;22.30;99.90;;;;;;5009665;28;20069;-75
2022/08/08 02:12:27;;;;;;;10.93;6.13;;;22.30;99.90;;;;;;5026294;28;20032;-79
2022/08/08 02:15:08;;;;;;;11.98;6.68;;;22.10;99.90;;;;;;5023738;28;20037;-78
2022/08/08 02:18:02;;;;;;;12.45;6.47;;;22.00;99.90;;;;;;5012222;28;20037;-81
2022/08/08 02:23:52;;;;;;;10.68;6.97;;;21.90;99.90;;;;;;5025438;28;20495;-80
2022/08/08 02:26:27;;;;;;;9.95;6.03;;;21.90;99.90;;;;;;5009614;28;20980;-81
2022/08/08 02:29:20;;;;;;;8.23;5.65;;;21.90;99.90;;;;;;5023277;28;20045;-80
2022/08/08 02:32:07;;;;;;;12.45;6.45;;;21.90;99.90;;;;;;5030536;28;20125;-80
2022/08/08 02:34:53;;;;;;;15.52;6.53;;;22.00;99.90;;;;;;4998286;28;20037;-77
2022/08/08 02:37:30;;;;;;;10.38;6.25;;;21.90;99.90;;;;;;5025597;28;20018;-80
2022/08/08 02:40:24;;;;;;;11.82;7.13;;;21.80;99.90;;;;;;5043799;28;20120;-80
2022/08/08 02:43:08;;;;;;;12.98;6.88;;;21.60;99.90;;;;;;5002438;28;20042;-80
2022/08/08 02:45:58;;;;;;;12.73;7.28;;;21.70;99.90;;;;;;5025782;28;20076;-78
2022/08/08 02:48:53;;;;;;;15.27;7.93;;;21.70;99.90;;;;;;5038428;28;20084;-80
2022/08/08 02:51:34;;;;;;;15.68;9.10;;;21.70;99.90;;;;;;5003390;28;20038;-79
2022/08/08 02:54:29;;;;;;;13.30;7.75;;;21.60;99.90;;;;;;5016833;28;20138;-80
2022/08/08 02:57:00;;;;;;;14.63;8.52;;;21.50;99.90;;;;;;5010049;28;20036;-79
2022/08/08 02:59:45;;;;;;;24.88;9.25;;;21.60;99.90;;;;;;5014264;28;20030;-80
2022/08/08 03:02:48;;;;;;;14.70;8.50;;;21.60;99.90;;;;;;5025415;28;20026;-79
2022/08/08 03:05:26;;;;;;;14.45;8.35;;;21.60;99.90;;;;;;5012191;28;20073;-79
2022/08/08 03:08:30;;;;;;;15.02;9.63;;;21.60;99.90;;;;;;5001935;28;20034;-67
2022/08/08 03:11:22;;;;;;;17.52;8.32;;;21.70;99.90;;;;;;5009745;28;20176;-79
2022/08/08 03:14:16;;;;;;;16.33;9.00;;;21.70;99.90;;;;;;5008370;28;20065;-71
2022/08/08 03:16:52;;;;;;;14.93;8.35;;;21.60;99.90;;;;;;5023534;28;20034;-63
2022/08/08 03:19:37;;;;;;;14.93;8.82;;;21.60;99.90;;;;;;5021586;28;20026;-76
2022/08/08 03:22:03;;;;;;;16.45;9.50;;;21.60;99.90;;;;;;5008256;28;20072;-69
2022/08/08 03:24:29;;;;;;;17.52;10.07;;;21.60;99.90;;;;;;5025791;28;20066;-78
2022/08/08 03:27:11;;;;;;;16.60;9.73;;;21.60;99.90;;;;;;5007573;28;20362;-64
2022/08/08 03:29:43;;;;;;;15.80;9.68;;;21.60;99.90;;;;;;5006354;28;20080;-77
2022/08/08 03:35:06;;;;;;;17.40;9.65;;;21.50;99.90;;;;;;5024831;28;20050;-75
2022/08/08 03:37:35;;;;;;;17.45;9.70;;;21.50;99.90;;;;;;5025369;28;20026;-77
2022/08/08 03:40:04;;;;;;;14.60;8.30;;;21.40;99.90;;;;;;5006786;28;20099;-78
2022/08/08 03:42:32;;;;;;;17.10;8.07;;;21.40;99.90;;;;;;5034643;28;20030;-69
2022/08/08 03:44:59;;;;;;;18.13;8.38;;;21.50;99.90;;;;;;5009784;28;20042;-78
2022/08/08 03:47:26;;;;;;;20.40;8.90;;;21.50;99.90;;;;;;5005093;28;20032;-63
2022/08/08 03:49:53;;;;;;;12.65;8.00;;;21.60;99.90;;;;;;5029406;28;20030;-78
2022/08/08 03:52:20;;;;;;;14.55;8.32;;;21.60;99.90;;;;;;5029708;28;20037;-77
2022/08/08 03:54:46;;;;;;;15.25;7.95;;;21.80;99.90;;;;;;5024857;28;20048;-69
2022/08/08 03:57:15;;;;;;;17.63;8.13;;;21.90;99.90;;;;;;5013486;28;20526;-75
2022/08/08 03:59:41;;;;;;;15.40;8.20;;;22.10;99.90;;;;;;5009509;28;20026;-72
2022/08/08 04:02:18;;;;;;;13.18;7.13;;;22.30;99.90;;;;;;5013383;28;20149;-72
2022/08/08 04:04:45;;;;;;;16.40;8.52;;;22.60;99.90;;;;;;5040660;28;20029;-64
2022/08/08 04:07:11;;;;;;;13.45;7.43;;;22.90;99.90;;;;;;5011655;28;20083;-75
2022/08/08 04:09:38;;;;;;;11.35;6.97;;;23.30;99.90;;;;;;5024981;28;20472;-72
2022/08/08 04:12:05;;;;;;;13.65;6.95;;;23.50;99.90;;;;;;5027523;28;20492;-73
2022/08/08 04:14:44;;;;;;;11.18;7.22;;;23.70;99.90;;;;;;5023451;28;20030;-65
2022/08/08 04:17:10;;;;;;;15.07;7.00;;;23.90;99.90;;;;;;5019845;28;20040;-77
2022/08/08 04:19:36;;;;;;;9.82;6.78;;;23.70;99.90;;;;;;5022839;28;20417;-78
2022/08/08 04:22:02;;;;;;;11.88;7.53;;;23.80;99.90;;;;;;5009569;28;20505;-79
2022/08/08 04:24:34;;;;;;;11.35;7.15;;;24.00;99.90;;;;;;5031421;28;20582;-77
2022/08/08 04:27:03;;;;;;;14.30;7.43;;;24.50;99.90;;;;;;5038029;28;20131;-74
2022/08/08 04:29:30;;;;;;;13.52;7.10;;;;;;;;;;5013753;28;20038;-80
2022/08/08 04:31:56;;;;;;;12.68;6.82;;;;;;;;;;5028216;28;20065;-74
2022/08/08 04:34:23;;;;;;;14.18;7.20;;;26.20;99.00;;;;;;5012620;28;20151;-80
2022/08/08 04:36:49;;;;;;;10.52;6.00;;;25.70;99.90;;;;;;5007925;28;20109;-81
2022/08/08 04:39:15;;;;;;;11.68;6.50;;;;;;;;;;5003473;28;20160;-81
2022/08/08 04:41:41;;;;;;;16.65;6.75;;;27.00;99.90;;;;;;5011047;28;20423;-81
2022/08/08 04:44:07;;;;;;;14.18;7.20;;;26.70;99.90;;;;;;5009689;28;20049;-80
2022/08/08 04:46:33;;;;;;;11.07;6.93;;;26.20;99.90;;;;;;5011981;28;20562;-67
2022/08/08 04:49:02;;;;;;;19.05;7.28;;;;;;;;;;5026852;28;20472;-80
2022/08/08 04:51:28;;;;;;;18.05;7.05;;;;;;;;;;5027676;28;20033;-78
2022/08/08 04:53:55;;;;;;;15.90;6.50;;;;;;;;;;5019108;28;20050;-80
2022/08/08 04:56:21;;;;;;;19.40;7.18;;;27.80;96.80;;;;;;5025140;28;20042;-80
2022/08/08 04:58:47;;;;;;;10.07;6.53;;;27.60;92.00;;;;;;5004636;28;20101;-80
2022/08/08 05:01:13;;;;;;;12.95;7.47;;;;;;;;;;5010954;28;20084;-78
2022/08/08 05:03:42;;;;;;;11.52;6.97;;;28.80;99.90;;;;;;5012218;28;20026;-80
2022/08/08 05:06:08;;;;;;;20.48;7.05;;;28.90;87.80;;;;;;5044614;28;20454;-79
2022/08/08 05:08:34;;;;;;;12.55;7.18;;;28.90;86.90;;;;;;5024620;28;20372;-80
2022/08/08 05:11:00;;;;;;;12.55;7.25;;;28.50;87.60;;;;;;5018556;28;20044;-78
2022/08/08 05:13:26;;;;;;;13.50;6.32;;;27.70;90.50;;;;;;5005781;28;20117;-79
2022/08/08 05:15:52;;;;;;;10.10;6.15;;;27.40;90.80;;;;;;5028330;28;20030;-79
2022/08/08 05:18:18;;;;;;;12.45;7.75;;;27.10;92.00;;;;;;5018370;28;20041;-78
2022/08/08 05:20:44;;;;;;;20.92;7.72;;;26.40;93.60;;;;;;5022620;28;20022;-78
2022/08/08 05:23:10;;;;;;;16.27;7.30;;;29.30;97.50;;;;;;5002511;28;20022;-72
2022/08/08 05:25:37;;;;;;;11.95;6.93;;;;;;;;;;5005859;28;20037;-78
2022/08/08 05:28:03;;;;;;;13.23;8.07;;;25.90;97.30;;;;;;5028033;28;20038;-76
2022/08/08 05:30:29;;;;;;;14.05;8.07;;;25.80;99.20;;;;;;5028326;28;20033;-76
2022/08/08 05:32:56;;;;;;;14.02;7.00;;;25.80;99.20;;;;;;5027376;28;20072;-77
2022/08/08 05:35:23;;;;;;;11.00;6.80;;;25.80;99.00;;;;;;5011927;28;20829;-72
2022/08/08 05:37:59;;;;;;;16.07;7.53;;;25.80;99.90;;;;;;5011209;28;20025;-76
2022/08/08 05:40:34;;;;;;;16.08;7.05;;;;;;;;;;5025272;28;20306;-75
2022/08/08 05:43:09;;;;;;;19.23;6.75;;;25.40;99.40;;;;;;5012279;28;20065;-76
2022/08/08 05:45:36;;;;;;;12.85;7.10;;;25.50;99.50;;;;;;5000004;28;20566;-76
2022/08/08 05:48:05;;;;;;;13.13;6.85;;;25.60;99.90;;;;;;4988879;28;20092;-77
2022/08/08 05:50:31;;;;;;;16.58;7.95;;;25.50;99.90;;;;;;4991211;28;20508;-76
2022/08/08 05:52:58;;;;;;;14.32;6.93;;;25.70;99.90;;;;;;4990930;28;20381;-76
2022/08/08 05:55:25;;;;;;;12.27;5.90;;;25.80;99.40;;;;;;5006016;28;20435;-76
2022/08/08 05:57:52;;;;;;;11.02;6.68;;;26.10;99.30;;;;;;4987169;28;20029;-76
2022/08/08 06:00:18;;;;;;;11.95;6.13;;;26.20;98.90;;;;;;5005125;28;20499;-76
2022/08/08 06:03:12;;;;;;;10.10;6.53;;;26.50;98.30;;;;;;4997775;28;20059;-77
2022/08/08 06:05:58;;;;;;;14.15;7.30;;;26.30;98.40;;;;;;5004380;28;20023;-79
2022/08/08 06:08:36;;;;;;;12.88;6.80;;;26.60;96.40;;;;;;4973889;28;20392;-77
2022/08/08 06:11:06;;;;;;;11.88;5.53;;;26.90;95.80;;;;;;4994852;28;20027;-77
2022/08/08 06:13:33;;;;;;;12.38;5.05;;;26.70;93.40;;;;;;5002877;28;20035;-76
2022/08/08 06:16:00;;;;;;;11.00;6.35;;;26.30;94.00;;;;;;5006891;28;20061;-77
2022/08/08 06:18:38;;;;;;;16.67;5.78;;;26.60;93.80;;;;;;4992492;28;20026;-76
2022/08/08 06:21:05;;;;;;;12.10;5.53;;;26.90;91.40;;;;;;4997711;28;20039;-75
2022/08/08 06:23:30;;;;;;;7.60;5.28;;;27.20;92.30;;;;;;4992796;28;20026;-78
2022/08/08 06:26:03;;;;;;;8.32;5.32;;;27.40;92.40;;;;;;4987961;28;20026;-77
2022/08/08 06:28:32;;;;;;;8.63;4.95;;;27.70;92.70;;;;;;4987953;28;20022;-76
2022/08/08 06:31:00;;;;;;;12.52;5.18;;;;;;;;;;5007327;28;20037;-75
2022/08/08 06:33:35;;;;;;;7.78;4.45;;;;;;;;;;4993977;28;20041;-77
2022/08/08 06:36:01;;;;;;;8.65;5.18;;;28.20;83.30;;;;;;4997507;28;20042;-77
2022/08/08 06:38:33;;;;;;;7.45;4.82;;;28.10;83.20;;;;;;5003642;28;20056;-77
2022/08/08 06:41:11;;;;;;;10.05;5.03;;;28.00;85.10;;;;;;4990891;28;20129;-77
2022/08/08 06:43:42;;;;;;;7.88;4.78;;;28.00;86.60;;;;;;5010581;28;20558;-77
2022/08/08 06:46:16;;;;;;;12.00;5.40;;;27.90;85.70;;;;;;5026117;28;20384;-77
2022/08/08 06:48:46;;;;;;;8.48;4.85;;;28.30;86.10;;;;;;5026876;28;20076;-78
2022/08/08 06:51:14;;;;;;;11.82;5.07;;;28.30;84.70;;;;;;5026667;28;20030;-77
2022/08/08 06:53:40;;;;;;;13.00;4.85;;;28.30;82.10;;;;;;5026977;28;20034;-77
2022/08/08 06:56:10;;;;;;;9.05;4.88;;;28.40;83.70;;;;;;5007578;28;20038;-76
2022/08/08 06:58:36;;;;;;;10.02;5.18;;;28.30;80.80;;;;;;5020265;28;20058;-76
2022/08/08 07:01:12;;;;;;;10.43;5.40;;;28.30;78.60;;;;;;5018323;28;20038;-78
2022/08/08 07:04:02;;;;;;;8.65;4.30;;;28.30;78.80;;;;;;5026528;28;20030;-79
2022/08/08 07:06:32;;;;;;;8.63;4.80;;;28.30;81.90;;;;;;5006254;28;20463;-79
2022/08/08 07:09:11;;;;;;;9.35;4.63;;;28.30;79.70;;;;;;5010628;28;20097;-78
2022/08/08 07:11:41;;;;;;;5.50;3.67;;;28.60;80.40;;;;;;5010381;28;20038;-74
2022/08/08 07:14:15;;;;;;;8.98;5.22;;;28.70;80.20;;;;;;5004552;28;20105;-78
2022/08/08 07:17:04;;;;;;;9.48;4.68;;;28.80;77.60;;;;;;5024491;28;20045;-76
2022/08/08 07:19:43;;;;;;;15.25;5.00;;;29.60;94.10;;;;;;5008250;28;20030;-79
2022/08/08 07:22:10;;;;;;;11.05;4.57;;;;;;;;;;5026177;28;20116;-78
2022/08/08 07:24:49;;;;;;;10.10;4.45;;;29.10;77.70;;;;;;5026717;28;20108;-78
2022/08/08 07:27:20;;;;;;;8.90;4.32;;;29.50;77.70;;;;;;5006509;28;20615;-78
2022/08/08 07:29:46;;;;;;;14.95;4.93;;;29.80;76.70;;;;;;5011037;28;20054;-75
2022/08/08 07:32:12;;;;;;;23.10;4.32;;;29.90;76.50;;;;;;5019498;28;20112;-77
2022/08/08 07:34:40;;;;;;;7.95;3.90;;;29.90;75.80;;;;;;5016449;28;20054;-77
2022/08/08 07:37:11;;;;;;;8.18;4.32;;;;;;;;;;5024639;28;20034;-81
2022/08/08 07:39:40;;;;;;;6.38;4.28;;;;;;;;;;5010518;28;20034;-74
2022/08/08 07:42:09;;;;;;;9.45;4.22;;;;;;;;;;5005496;28;20472;-77
2022/08/08 07:44:35;;;;;;;15.45;4.80;;;;;;;;;;5010079;28;20050;-68
2022/08/08 07:47:01;;;;;;;8.88;4.53;;;30.40;73.30;;;;;;5007903;28;20441;-75
2022/08/08 07:49:28;;;;;;;8.80;4.93;;;30.40;72.90;;;;;;5011162;28;20400;-67
2022/08/08 07:51:56;;;;;;;9.40;4.47;;;30.40;73.60;;;;;;4996673;28;20026;-78
2022/08/08 07:54:56;;;;;;;6.65;4.20;;;;;;;;;;5014005;28;20392;-74
2022/08/08 07:57:33;;;;;;;9.75;4.07;;;30.90;73.60;;;;;;4975388;28;20174;-78
2022/08/08 08:00:13;;;;;;;6.85;4.07;;;30.90;73.50;;;;;;4968186;28;20066;-76
2022/08/08 08:03:17;;;;;;;6.75;3.35;;;31.00;70.40;;;;;;4966846;28;20113;-79
2022/08/08 08:05:46;;;;;;;9.63;4.22;;;30.90;70.70;;;;;;4967233;28;20038;-73
2022/08/08 08:08:17;;;;;;;10.00;4.22;;;30.50;71.40;;;;;;4967665;28;20030;-78
2022/08/08 08:10:48;;;;;;;7.10;4.47;;;30.50;71.30;;;;;;4967980;28;20093;-75
2022/08/08 08:13:32;;;;;;;7.78;3.83;;;30.50;70.90;;;;;;4963955;28;20042;-79
2022/08/08 08:16:07;;;;;;;5.95;3.70;;;30.60;71.90;;;;;;4967782;28;20041;-77
2022/08/08 08:18:45;;;;;;;8.57;3.92;;;30.20;71.40;;;;;;4968819;28;20034;-77
2022/08/08 08:21:11;;;;;;;5.35;4.00;;;30.50;71.40;;;;;;4969993;28;20413;-75
2022/08/08 08:23:38;;;;;;;9.02;4.15;;;30.70;72.80;;;;;;4967287;28;20439;-75
2022/08/08 08:26:06;;;;;;;9.55;4.63;;;30.80;71.40;;;;;;4968510;28;20484;-74
2022/08/08 08:28:32;;;;;;;9.73;4.55;;;30.80;70.40;;;;;;4971711;28;20125;-75
2022/08/08 08:31:03;;;;;;;12.93;4.70;;;;;;;;;;4964204;28;20035;-74
2022/08/08 08:33:34;;;;;;;9.52;5.05;;;;;;;;;;4973428;28;20069;-73
2022/08/08 08:36:03;;;;;;;9.65;4.50;;;31.50;71.20;;;;;;4975115;28;20133;-74
2022/08/08 08:38:30;;;;;;;9.55;4.57;;;31.60;69.80;;;;;;4979759;28;20440;-76
2022/08/08 08:41:02;;;;;;;6.65;3.90;;;31.50;68.80;;;;;;5013586;28;20403;-74
2022/08/08 08:43:30;;;;;;;8.65;4.03;;;31.40;72.70;;;;;;5028211;28;20388;-74
2022/08/08 08:45:59;;;;;;;7.07;4.65;;;31.20;71.00;;;;;;5011925;28;20025;-72
2022/08/08 08:48:25;;;;;;;6.80;4.32;;;31.40;70.90;;;;;;5011763;28;20046;-78
2022/08/08 08:50:53;;;;;;;9.27;4.97;;;30.80;70.30;;;;;;5044475;28;20460;-77
2022/08/08 08:53:21;;;;;;;8.27;4.43;;;31.30;69.70;;;;;;5028526;28;20028;-77
2022/08/08 08:55:48;;;;;;;13.02;5.20;;;31.00;70.40;;;;;;5028860;28;20050;-76
2022/08/08 08:58:30;;;;;;;10.00;5.90;;;30.90;70.30;;;;;;5012024;28;20060;-76
2022/08/08 09:00:59;;;;;;;10.50;5.82;;;30.60;71.20;;;;;;5027974;28;20047;-77
2022/08/08 09:03:26;;;;;;;12.65;4.95;;;30.10;71.20;;;;;;5003802;28;20454;-79
2022/08/08 09:05:53;;;;;;;10.85;5.25;;;30.50;70.80;;;;;;5010382;28;20137;-78
2022/08/08 09:08:23;;;;;;;10.68;4.50;;;30.70;70.80;;;;;;5013613;28;20049;-77
2022/08/08 09:10:50;;;;;;;16.08;4.80;;;30.60;71.40;;;;;;5008340;28;20534;-77
2022/08/08 09:13:17;;;;;;;11.70;6.57;;;30.70;70.80;;;;;;5031471;28;20087;-76
2022/08/08 09:15:43;;;;;;;9.07;4.63;;;30.90;70.40;;;;;;5016139;28;20045;-76
2022/08/08 09:18:13;;;;;;;7.55;4.60;;;30.80;70.30;;;;;;5026045;28;20030;-77
2022/08/08 09:20:45;;;;;;;10.93;5.45;;;30.70;71.00;;;;;;5025297;28;20034;-75
2022/08/08 09:23:15;;;;;;;10.25;4.65;;;30.90;71.60;;;;;;5027006;28;20411;-75
2022/08/08 09:26:02;;;;;;;6.68;4.22;;;30.90;70.30;;;;;;5048263;28;20121;-76
2022/08/08 09:28:32;;;;;;;9.90;5.40;;;31.00;72.90;;;;;;5009749;28;20037;-72
2022/08/08 09:31:04;;;;;;;7.03;4.72;;;31.00;70.70;;;;;;5010005;28;20018;-77
2022/08/08 09:33:34;;;;;;;9.48;4.22;;;31.00;71.90;;;;;;5026215;28;20507;-77
2022/08/08 09:36:00;;;;;;;7.75;4.85;;;31.10;70.80;;;;;;5013169;28;20088;-77
2022/08/08 09:38:58;;;;;;;13.40;4.97;;;30.80;71.40;;;;;;4986801;28;20033;-76
2022/08/08 09:41:41;;;;;;;13.35;5.03;;;31.00;70.40;;;;;;5011492;28;20037;-75
2022/08/08 09:44:51;;;;;;;10.55;5.03;;;31.10;70.60;;;;;;5012179;28;20527;-76
2022/08/08 09:47:22;;;;;;;9.70;4.70;;;31.20;71.40;;;;;;5012466;28;20046;-76
2022/08/08 09:49:48;;;;;;;7.37;4.53;;;31.40;70.00;;;;;;5012306;28;20104;-77
2022/08/08 09:52:19;;;;;;;6.50;4.38;;;31.50;69.70;;;;;;5007598;28;20464;-75
2022/08/08 09:54:48;;;;;;;6.63;3.85;;;31.90;70.10;;;;;;5003918;28;20056;-75
2022/08/08 09:57:22;;;;;;;6.03;4.45;;;32.10;70.20;;;;;;5013903;28;20033;-75
2022/08/08 09:59:50;;;;;;;9.65;4.53;;;32.10;70.80;;;;;;5012455;28;20030;-77
2022/08/08 10:02:23;;;;;;;13.77;4.75;;;32.30;70.60;;;;;;5014318;28;20068;-74
2022/08/08 10:04:50;;;;;;;10.07;4.65;;;32.30;72.60;;;;;;5006786;28;20050;-76
2022/08/08 10:07:18;;;;;;;6.85;3.92;;;32.10;68.20;;;;;;5010864;28;20025;-76
2022/08/08 10:09:50;;;;;;;7.32;3.97;;;31.90;68.90;;;;;;5014764;28;20563;-78
2022/08/08 10:12:17;;;;;;;11.85;3.85;;;31.60;67.70;;;;;;5012207;28;20092;-74
2022/08/08 10:14:42;;;;;;;4.68;3.25;;;31.90;67.70;;;;;;5026464;28;20037;-77
2022/08/08 10:17:09;;;;;;;10.70;3.75;;;31.90;66.90;;;;;;5012172;28;20040;-75
2022/08/08 10:19:41;;;;;;;6.63;3.58;;;32.70;92.80;;;;;;5012435;28;20035;-75
2022/08/08 10:22:08;;;;;;;9.50;3.90;;;32.60;66.80;;;;;;5011820;28;20026;-77
2022/08/08 10:24:35;;;;;;;8.98;3.47;;;32.60;67.20;;;;;;5010641;28;20026;-73
2022/08/08 10:27:04;;;;;;;9.82;3.15;;;32.60;66.70;;;;;;5010165;28;20548;-76
2022/08/08 10:29:47;;;;;;;8.25;2.85;;;32.60;65.90;;;;;;5010510;28;20060;-75
2022/08/08 10:32:36;;;;;;;6.65;3.53;;;32.30;66.30;;;;;;5011487;28;20025;-74
2022/08/08 10:35:16;;;;;;;6.40;3.60;;;32.10;65.40;;;;;;5005743;28;20048;-74
2022/08/08 10:38:00;;;;;;;16.52;3.47;;;32.50;67.30;;;;;;5007339;28;20463;-75
2022/08/08 10:40:28;;;;;;;10.15;3.35;;;;;;;;;;5011533;28;20112;-74
2022/08/08 10:43:02;;;;;;;6.00;3.92;;;33.30;65.20;;;;;;5011762;28;21548;-73
2022/08/08 10:45:29;;;;;;;8.85;3.53;;;33.40;75.80;;;;;;5020538;28;20153;-72
2022/08/08 10:47:56;;;;;;;6.55;3.50;;;33.30;64.30;;;;;;5003168;28;20064;-74
2022/08/08 10:50:34;;;;;;;5.95;2.97;;;33.50;63.80;;;;;;5011414;28;20622;-74
2022/08/08 10:53:18;;;;;;;7.85;3.40;;;33.10;63.00;;;;;;5006951;28;20046;-75
2022/08/08 10:55:44;;;;;;;9.70;3.55;;;33.20;65.30;;;;;;5010215;28;20045;-74
2022/08/08 10:58:10;;;;;;;5.20;3.08;;;33.10;63.90;;;;;;5010809;28;20030;-74
2022/08/08 11:00:45;;;;;;;5.80;3.25;;;32.90;64.80;;;;;;5026518;28;20077;-74
2022/08/08 11:03:17;;;;;;;3.33;2.88;;;33.10;65.30;;;;;;5010657;28;20033;-76
2022/08/08 11:05:51;;;;;;;6.25;3.60;;;33.40;65.40;;;;;;5010883;28;20033;-72
2022/08/08 11:08:27;;;;;;;4.95;2.75;;;33.60;65.30;;;;;;5011062;28;20030;-74
2022/08/08 11:11:08;;;;;;;7.57;3.65;;;33.50;64.20;;;;;;5010886;28;20051;-74
2022/08/08 11:13:46;;;;;;;5.90;3.55;;;33.20;64.50;;;;;;5010938;28;20041;-72
2022/08/08 11:16:26;;;;;;;7.60;3.50;;;33.00;68.90;;;;;;5011018;28;20046;-75
2022/08/08 11:18:53;;;;;;;4.57;3.35;;;33.30;65.20;;;;;;5010714;28;20045;-73
2022/08/08 11:21:22;;;;;;;9.80;3.60;;;33.50;64.70;;;;;;5010788;28;20069;-74
2022/08/08 11:23:49;;;;;;;5.20;3.78;;;33.50;68.40;;;;;;5010651;28;20034;-74
2022/08/08 11:26:18;;;;;;;6.50;3.40;;;33.60;73.00;;;;;;5011203;28;20113;-72
2022/08/08 11:28:45;;;;;;;11.35;3.80;;;33.40;63.90;;;;;;5010760;28;20621;-74
2022/08/08 11:31:15;;;;;;;7.97;3.88;;;33.20;64.60;;;;;;5011360;28;20022;-75
2022/08/08 11:33:47;;;;;;;7.03;3.40;;;;;;;;;;5010680;28;20036;-75
2022/08/08 11:36:13;;;;;;;8.77;3.88;;;32.70;64.00;;;;;;5026129;28;20048;-74
2022/08/08 11:38:46;;;;;;;8.52;3.85;;;32.20;70.10;;;;;;5010757;28;20113;-75
2022/08/08 11:41:15;;;;;;;10.55;3.78;;;32.70;76.80;;;;;;4996799;28;20070;-74
2022/08/08 11:43:43;;;;;;;6.68;3.65;;;33.10;79.60;;;;;;5010432;28;20134;-75
2022/08/08 11:46:09;;;;;;;9.55;4.07;;;32.90;65.30;;;;;;5010840;28;20654;-75
2022/08/08 11:48:37;;;;;;;7.40;3.90;;;33.30;66.60;;;;;;5010475;28;20030;-74
2022/08/08 11:51:04;;;;;;;5.18;3.22;;;33.50;69.70;;;;;;5010534;28;20040;-74
2022/08/08 11:53:31;;;;;;;5.82;4.00;;;33.50;68.70;;;;;;5009793;28;20026;-75
2022/08/08 11:55:57;;;;;;;7.57;5.07;;;33.30;69.20;;;;;;5010317;28;20065;-74
2022/08/08 11:58:33;;;;;;;5.80;4.03;;;;;;;;;;5010499;28;20468;-72
2022/08/08 12:00:59;;;;;;;5.53;3.83;;;32.70;63.50;;;;;;5007101;28;20018;-75
2022/08/08 12:03:26;;;;;;;6.75;4.28;;;32.90;64.80;;;;;;5005932;28;20044;-70
2022/08/08 12:05:53;;;;;;;6.55;3.85;;;33.10;63.70;;;;;;5013912;28;20626;-67
2022/08/08 12:08:32;;;;;;;9.35;3.88;;;33.20;65.20;;;;;;5012701;28;20049;-76
2022/08/08 12:11:03;;;;;;;7.18;4.65;;;33.50;65.40;;;;;;5014475;28;20037;-74
2022/08/08 12:13:30;;;;;;;12.90;5.10;;;33.30;65.70;;;;;;5012487;28;20041;-72
2022/08/08 12:16:11;;;;;;;7.88;4.90;;;33.10;65.90;;;;;;5008174;28;20042;-69
2022/08/08 12:18:44;;;;;;;4.22;3.38;;;33.20;66.20;;;;;;5006073;28;20029;-77
2022/08/08 12:21:31;;;;;;;9.10;4.88;;;33.30;65.20;;;;;;5026508;28;20035;-78
2022/08/08 12:24:06;;;;;;;9.38;4.47;;;33.20;63.80;;;;;;5007348;28;20026;-75
2022/08/08 12:26:39;;;;;;;8.38;4.45;;;33.20;64.70;;;;;;5001097;28;20037;-73
2022/08/08 12:29:20;;;;;;;5.53;4.22;;;33.00;64.70;;;;;;5013483;28;20157;-76
2022/08/08 12:31:47;;;;;;;6.93;4.68;;;33.30;64.80;;;;;;5001896;28;20480;-75
2022/08/08 12:34:13;;;;;;;6.88;4.10;;;33.40;64.70;;;;;;5014002;28;20032;-76
2022/08/08 12:36:40;;;;;;;7.75;4.38;;;33.60;73.90;;;;;;5000392;28;20038;-74
2022/08/08 12:39:07;;;;;;;8.00;4.90;;;33.50;68.60;;;;;;5014529;28;20022;-75
2022/08/08 12:41:36;;;;;;;8.18;4.53;;;33.60;68.50;;;;;;5014089;28;20033;-75
2022/08/08 12:44:11;;;;;;;6.18;4.28;;;;;;;;;;5013119;28;20037;-75
2022/08/08 12:46:37;;;;;;;12.93;5.00;;;33.50;62.20;;;;;;5013867;28;20104;-73
2022/08/08 12:49:04;;;;;;;9.75;4.97;;;33.50;64.20;;;;;;5013705;28;20105;-74
2022/08/08 12:51:41;;;;;;;7.93;4.75;;;33.50;64.00;;;;;;5013892;28;20057;-74
2022/08/08 12:54:08;;;;;;;5.28;4.00;;;33.20;64.20;;;;;;5013998;28;20037;-78
2022/08/08 12:56:38;;;;;;;7.00;4.43;;;33.40;64.30;;;;;;5014125;28;20117;-77
2022/08/08 12:59:49;;;;;;;7.05;4.80;;;33.40;62.90;;;;;;5013414;28;20032;-76
2022/08/08 13:02:24;;;;;;;7.32;4.97;;;33.40;63.80;;;;;;5013848;28;20034;-78
2022/08/08 13:04:51;;;;;;;8.68;4.75;;;33.20;63.20;;;;;;5000649;28;20037;-78
2022/08/08 13:07:17;;;;;;;6.28;4.25;;;33.20;62.90;;;;;;5012839;28;20022;-75
2022/08/08 13:09:57;;;;;;;9.65;4.97;;;33.10;63.20;;;;;;5013297;28;20103;-77
2022/08/08 13:12:28;;;;;;;10.32;5.32;;;33.30;73.90;;;;;;4998529;28;20113;-75
2022/08/08 13:14:55;;;;;;;9.68;4.72;;;33.50;72.00;;;;;;5002802;28;20030;-78
2022/08/08 13:17:27;;;;;;;5.57;4.15;;;33.80;88.00;;;;;;4999047;28;20040;-78
2022/08/08 13:19:56;;;;;;;8.07;5.32;;;33.90;63.30;;;;;;5007875;28;20034;-80
2022/08/08 13:22:23;;;;;;;8.45;5.00;;;33.70;62.10;;;;;;5007053;28;20022;-77
2022/08/08 13:24:50;;;;;;;8.88;4.78;;;33.60;64.30;;;;;;5007695;28;20430;-78
2022/08/08 13:27:17;;;;;;;7.28;5.53;;;33.80;63.10;;;;;;5012648;28;20478;-80
2022/08/08 13:29:57;;;;;;;10.68;4.28;;;;;;;;;;5013356;28;20500;-78
2022/08/08 13:32:24;;;;;;;7.00;4.78;;;;;;;;;;5012561;28;20022;-78
2022/08/08 13:34:56;;;;;;;13.00;4.57;;;32.70;64.10;;;;;;5012473;28;20026;-78
2022/08/08 13:37:24;;;;;;;8.30;4.82;;;32.90;64.90;;;;;;5012520;28;20034;-78